sensor_id;sensor_type;location;lat;lon;timestamp;temperature;humidity
16271;DHT22;8243;49.048;8.396;2023-04-01T00:00:18;10.10;99.90
16271;DHT22;8243;49.048;8.396;2023-04-01T00:02:44;10.00;99.90
16271;DHT22;8243;49.048;8.396;2023-04-01T00:05:11;10.00;99.90
16271;DHT22;8243;49.048;8.396;2023-04-01T00:07:38;10.00;99.90
16271;DHT22;8243;49.048;8.396;2023-04-01T00:10:08;10.00;99.90
16271;DHT22;8243;49.048;8.396;2023-04-01T00:12:35;10.00;99.90
16271;DHT22;8243;49.048;8.396;2023-04-01T00:15:02;10.00;99.90
16271;DHT22;8243;49.048;8.396;2023-04-01T00:17:28;10.00;99.90
16271;DHT22;8243;49.048;8.396;2023-04-01T00:19:57;10.00;99.90
16271;DHT22;8243;49.048;8.396;2023-04-01T00:22:23;10.00;99.90
16271;DHT22;8243;49.048;8.396;2023-04-01T00:24:49;10.00;99.90
16271;DHT22;8243;49.048;8.396;2023-04-01T00:27:15;9.90;99.90
16271;DHT22;8243;49.048;8.396;2023-04-01T00:29:47;10.00;99.90
16271;DHT22;8243;49.048;8.396;2023-04-01T00:32:14;10.00;99.90
16271;DHT22;8243;49.048;8.396;2023-04-01T00:34:40;10.10;99.90
16271;DHT22;8243;49.048;8.396;2023-04-01T00:37:07;10.10;99.90
16271;DHT22;8243;49.048;8.396;2023-04-01T00:39:33;10.10;99.90
16271;DHT22;8243;49.048;8.396;2023-04-01T00:42:00;10.10;99.90
16271;DHT22;8243;49.048;8.396;2023-04-01T00:44:29;10.20;99.90
16271;DHT22;8243;49.048;8.396;2023-04-01T00:46:56;10.10;99.90
16271;DHT22;8243;49.048;8.396;2023-04-01T00:49:25;10.20;99.90
16271;DHT22;8243;49.048;8.396;2023-04-01T00:51:54;10.20;99.90
16271;DHT22;8243;49.048;8.396;2023-04-01T00:54:21;10.10;99.90
16271;DHT22;8243;49.048;8.396;2023-04-01T00:56:54;10.10;99.90
16271;DHT22;8243;49.048;8.396;2023-04-01T00:59:40;10.10;99.90
16271;DHT22;8243;49.048;8.396;2023-04-01T01:02:09;10.10;99.90
16271;DHT22;8243;49.048;8.396;2023-04-01T01:04:36;10.10;99.90
16271;DHT22;8243;49.048;8.396;2023-04-01T01:10:17;10.10;99.90
16271;DHT22;8243;49.048;8.396;2023-04-01T01:15:53;10.20;99.90
16271;DHT22;8243;49.048;8.396;2023-04-01T01:26:46;10.30;99.90
16271;DHT22;8243;49.048;8.396;2023-04-01T01:32:22;10.30;99.90
16271;DHT22;8243;49.048;8.396;2023-04-01T01:37:43;10.20;99.90
16271;DHT22;8243;49.048;8.396;2023-04-01T01:40:12;10.20;99.90
16271;DHT22;8243;49.048;8.396;2023-04-01T01:42:41;10.10;99.90
16271;DHT22;8243;49.048;8.396;2023-04-01T01:45:10;10.10;99.90
16271;DHT22;8243;49.048;8.396;2023-04-01T01:47:37;10.00;99.90
16271;DHT22;8243;49.048;8.396;2023-04-01T01:50:05;10.00;99.90
16271;DHT22;8243;49.048;8.396;2023-04-01T01:52:31;9.90;99.90
16271;DHT22;8243;49.048;8.396;2023-04-01T01:54:58;10.00;99.90
16271;DHT22;8243;49.048;8.396;2023-04-01T01:57:31;9.90;99.90
16271;DHT22;8243;49.048;8.396;2023-04-01T02:00:04;9.90;99.90
16271;DHT22;8243;49.048;8.396;2023-04-01T02:02:41;10.00;99.90
16271;DHT22;8243;49.048;8.396;2023-04-01T02:05:10;10.00;99.90
16271;DHT22;8243;49.048;8.396;2023-04-01T02:07:38;10.00;99.90
16271;DHT22;8243;49.048;8.396;2023-04-01T02:10:05;10.00;99.90
16271;DHT22;8243;49.048;8.396;2023-04-01T02:12:33;10.00;99.90
16271;DHT22;8243;49.048;8.396;2023-04-01T02:15:07;10.00;99.90
16271;DHT22;8243;49.048;8.396;2023-04-01T02:17:37;10.00;99.90
16271;DHT22;8243;49.048;8.396;2023-04-01T02:20:14;9.90;99.90
16271;DHT22;8243;49.048;8.396;2023-04-01T02:22:44;9.80;99.90
16271;DHT22;8243;49.048;8.396;2023-04-01T02:25:13;9.80;99.90
16271;DHT22;8243;49.048;8.396;2023-04-01T02:27:40;9.80;99.90
16271;DHT22;8243;49.048;8.396;2023-04-01T02:30:08;9.80;99.90
16271;DHT22;8243;49.048;8.396;2023-04-01T02:32:35;9.80;99.90
16271;DHT22;8243;49.048;8.396;2023-04-01T02:35:05;9.80;99.90
16271;DHT22;8243;49.048;8.396;2023-04-01T02:37:31;9.80;99.90
16271;DHT22;8243;49.048;8.396;2023-04-01T02:40:05;9.80;99.90
16271;DHT22;8243;49.048;8.396;2023-04-01T02:42:35;9.80;99.90
16271;DHT22;8243;49.048;8.396;2023-04-01T02:45:00;9.80;99.90
16271;DHT22;8243;49.048;8.396;2023-04-01T02:47:26;9.70;99.90
16271;DHT22;8243;49.048;8.396;2023-04-01T02:49:51;9.70;99.90
16271;DHT22;8243;49.048;8.396;2023-04-01T02:52:32;9.60;99.90
16271;DHT22;8243;49.048;8.396;2023-04-01T02:54:59;9.50;99.90
16271;DHT22;8243;49.048;8.396;2023-04-01T02:57:25;9.50;99.90
16271;DHT22;8243;49.048;8.396;2023-04-01T02:59:50;9.50;99.90
16271;DHT22;8243;49.048;8.396;2023-04-01T03:02:16;9.50;99.90
16271;DHT22;8243;49.048;8.396;2023-04-01T03:04:42;9.50;99.90
16271;DHT22;8243;49.048;8.396;2023-04-01T03:07:08;9.60;99.90
16271;DHT22;8243;49.048;8.396;2023-04-01T03:09:36;9.70;99.90
16271;DHT22;8243;49.048;8.396;2023-04-01T03:12:02;9.70;99.90
16271;DHT22;8243;49.048;8.396;2023-04-01T03:14:28;9.80;99.90
16271;DHT22;8243;49.048;8.396;2023-04-01T03:16:53;9.70;99.90
16271;DHT22;8243;49.048;8.396;2023-04-01T03:19:19;9.70;99.90
16271;DHT22;8243;49.048;8.396;2023-04-01T03:21:44;9.70;99.90
16271;DHT22;8243;49.048;8.396;2023-04-01T03:24:10;9.80;99.90
16271;DHT22;8243;49.048;8.396;2023-04-01T03:26:35;9.70;99.90
16271;DHT22;8243;49.048;8.396;2023-04-01T03:29:01;9.70;99.90
16271;DHT22;8243;49.048;8.396;2023-04-01T03:31:26;9.70;99.90
16271;DHT22;8243;49.048;8.396;2023-04-01T03:33:52;9.80;99.90
16271;DHT22;8243;49.048;8.396;2023-04-01T03:36:18;9.80;99.90
16271;DHT22;8243;49.048;8.396;2023-04-01T03:38:44;9.80;99.90
16271;DHT22;8243;49.048;8.396;2023-04-01T03:41:16;9.80;99.90
16271;DHT22;8243;49.048;8.396;2023-04-01T03:43:43;9.80;99.90
16271;DHT22;8243;49.048;8.396;2023-04-01T03:46:09;9.80;99.90
16271;DHT22;8243;49.048;8.396;2023-04-01T03:48:35;9.80;99.90
16271;DHT22;8243;49.048;8.396;2023-04-01T03:51:00;9.80;99.90
16271;DHT22;8243;49.048;8.396;2023-04-01T03:53:26;9.90;99.90
16271;DHT22;8243;49.048;8.396;2023-04-01T03:55:52;9.90;99.90
16271;DHT22;8243;49.048;8.396;2023-04-01T03:58:18;9.90;99.90
16271;DHT22;8243;49.048;8.396;2023-04-01T04:00:44;9.90;99.90
16271;DHT22;8243;49.048;8.396;2023-04-01T04:03:09;9.90;99.90
16271;DHT22;8243;49.048;8.396;2023-04-01T04:05:35;10.00;99.90
16271;DHT22;8243;49.048;8.396;2023-04-01T04:08:01;9.90;99.90
16271;DHT22;8243;49.048;8.396;2023-04-01T04:10:26;10.00;99.90
16271;DHT22;8243;49.048;8.396;2023-04-01T04:12:52;10.00;99.90
16271;DHT22;8243;49.048;8.396;2023-04-01T04:15:18;10.00;99.90
16271;DHT22;8243;49.048;8.396;2023-04-01T04:17:46;10.00;99.90
16271;DHT22;8243;49.048;8.396;2023-04-01T04:20:12;10.00;99.90
16271;DHT22;8243;49.048;8.396;2023-04-01T04:22:38;10.00;99.90
16271;DHT22;8243;49.048;8.396;2023-04-01T04:25:04;10.00;99.90
16271;DHT22;8243;49.048;8.396;2023-04-01T04:27:30;10.00;99.90
16271;DHT22;8243;49.048;8.396;2023-04-01T04:29:56;10.00;99.90
16271;DHT22;8243;49.048;8.396;2023-04-01T04:32:21;10.00;99.90
16271;DHT22;8243;49.048;8.396;2023-04-01T04:34:47;10.10;99.90
16271;DHT22;8243;49.048;8.396;2023-04-01T04:37:12;10.10;99.90
16271;DHT22;8243;49.048;8.396;2023-04-01T04:39:38;10.00;99.90
16271;DHT22;8243;49.048;8.396;2023-04-01T04:42:03;10.10;99.90
16271;DHT22;8243;49.048;8.396;2023-04-01T04:44:29;10.00;99.90
16271;DHT22;8243;49.048;8.396;2023-04-01T04:46:55;10.00;99.90
16271;DHT22;8243;49.048;8.396;2023-04-01T04:49:20;10.10;99.90
16271;DHT22;8243;49.048;8.396;2023-04-01T04:51:46;10.10;99.90
16271;DHT22;8243;49.048;8.396;2023-04-01T04:54:11;10.10;99.90
16271;DHT22;8243;49.048;8.396;2023-04-01T04:56:37;10.10;99.90
16271;DHT22;8243;49.048;8.396;2023-04-01T04:59:02;10.10;99.90
16271;DHT22;8243;49.048;8.396;2023-04-01T05:01:28;10.10;99.90
16271;DHT22;8243;49.048;8.396;2023-04-01T05:03:54;10.10;99.90
16271;DHT22;8243;49.048;8.396;2023-04-01T05:06:20;10.20;99.90
16271;DHT22;8243;49.048;8.396;2023-04-01T05:08:46;10.10;99.90
16271;DHT22;8243;49.048;8.396;2023-04-01T05:11:16;10.20;99.90
16271;DHT22;8243;49.048;8.396;2023-04-01T05:13:43;10.20;99.90
16271;DHT22;8243;49.048;8.396;2023-04-01T05:16:14;10.20;99.90
16271;DHT22;8243;49.048;8.396;2023-04-01T05:18:40;10.20;99.90
16271;DHT22;8243;49.048;8.396;2023-04-01T05:21:11;10.10;99.90
16271;DHT22;8243;49.048;8.396;2023-04-01T05:23:37;10.20;99.90
16271;DHT22;8243;49.048;8.396;2023-04-01T05:26:07;10.10;99.90
16271;DHT22;8243;49.048;8.396;2023-04-01T05:28:34;10.10;99.90
16271;DHT22;8243;49.048;8.396;2023-04-01T05:31:01;10.10;99.90
16271;DHT22;8243;49.048;8.396;2023-04-01T05:33:27;10.10;99.90
16271;DHT22;8243;49.048;8.396;2023-04-01T05:35:54;10.00;99.90
16271;DHT22;8243;49.048;8.396;2023-04-01T05:38:20;9.90;99.90
16271;DHT22;8243;49.048;8.396;2023-04-01T05:40:45;10.00;99.90
16271;DHT22;8243;49.048;8.396;2023-04-01T05:43:11;9.90;99.90
16271;DHT22;8243;49.048;8.396;2023-04-01T05:45:37;9.90;99.90
16271;DHT22;8243;49.048;8.396;2023-04-01T05:48:03;9.90;99.90
16271;DHT22;8243;49.048;8.396;2023-04-01T05:50:29;9.90;99.90
16271;DHT22;8243;49.048;8.396;2023-04-01T05:52:55;9.90;99.90
16271;DHT22;8243;49.048;8.396;2023-04-01T05:55:21;9.90;99.90
16271;DHT22;8243;49.048;8.396;2023-04-01T05:57:46;9.80;99.90
16271;DHT22;8243;49.048;8.396;2023-04-01T06:00:14;9.80;99.90
16271;DHT22;8243;49.048;8.396;2023-04-01T06:02:40;9.80;99.90
16271;DHT22;8243;49.048;8.396;2023-04-01T06:05:24;9.80;99.90
16271;DHT22;8243;49.048;8.396;2023-04-01T06:08:05;9.80;99.90
16271;DHT22;8243;49.048;8.396;2023-04-01T06:13:40;9.70;99.90
16271;DHT22;8243;49.048;8.396;2023-04-01T06:16:21;9.60;99.90
16271;DHT22;8243;49.048;8.396;2023-04-01T06:19:04;9.60;99.90
16271;DHT22;8243;49.048;8.396;2023-04-01T06:22:09;9.60;99.90
16271;DHT22;8243;49.048;8.396;2023-04-01T06:25:01;9.70;99.90
16271;DHT22;8243;49.048;8.396;2023-04-01T06:27:57;9.70;99.90
16271;DHT22;8243;49.048;8.396;2023-04-01T06:30:43;9.70;99.90
16271;DHT22;8243;49.048;8.396;2023-04-01T06:36:23;9.70;99.90
16271;DHT22;8243;49.048;8.396;2023-04-01T06:44:14;9.90;99.90
16271;DHT22;8243;49.048;8.396;2023-04-01T06:46:47;9.80;99.90
16271;DHT22;8243;49.048;8.396;2023-04-01T06:54:40;10.00;99.90
16271;DHT22;8243;49.048;8.396;2023-04-01T06:59:49;9.90;99.90
16271;DHT22;8243;49.048;8.396;2023-04-01T07:02:34;9.90;99.90
16271;DHT22;8243;49.048;8.396;2023-04-01T07:05:04;9.90;99.90
16271;DHT22;8243;49.048;8.396;2023-04-01T07:07:51;9.90;99.90
16271;DHT22;8243;49.048;8.396;2023-04-01T07:13:04;9.90;99.90
16271;DHT22;8243;49.048;8.396;2023-04-01T07:15:40;9.80;99.90
16271;DHT22;8243;49.048;8.396;2023-04-01T07:18:19;9.90;99.90
16271;DHT22;8243;49.048;8.396;2023-04-01T07:20:47;10.00;99.90
16271;DHT22;8243;49.048;8.396;2023-04-01T07:23:28;10.10;99.90
16271;DHT22;8243;49.048;8.396;2023-04-01T07:26:06;10.10;99.90
16271;DHT22;8243;49.048;8.396;2023-04-01T07:28:36;10.10;99.90
16271;DHT22;8243;49.048;8.396;2023-04-01T07:31:16;10.10;99.90
16271;DHT22;8243;49.048;8.396;2023-04-01T07:39:46;9.80;99.90
16271;DHT22;8243;49.048;8.396;2023-04-01T07:45:42;9.70;99.90
16271;DHT22;8243;49.048;8.396;2023-04-01T07:48:22;9.70;99.90
16271;DHT22;8243;49.048;8.396;2023-04-01T07:54:42;9.50;99.90
16271;DHT22;8243;49.048;8.396;2023-04-01T07:57:18;9.40;99.90
16271;DHT22;8243;49.048;8.396;2023-04-01T08:00:24;9.50;99.90
16271;DHT22;8243;49.048;8.396;2023-04-01T08:05:47;9.50;99.90
16271;DHT22;8243;49.048;8.396;2023-04-01T08:16:30;9.70;99.90
16271;DHT22;8243;49.048;8.396;2023-04-01T08:19:21;9.70;99.90
16271;DHT22;8243;49.048;8.396;2023-04-01T08:21:52;9.80;99.90
16271;DHT22;8243;49.048;8.396;2023-04-01T08:24:42;9.90;99.90
16271;DHT22;8243;49.048;8.396;2023-04-01T08:27:16;10.00;99.90
16271;DHT22;8243;49.048;8.396;2023-04-01T08:32:39;10.00;99.90
16271;DHT22;8243;49.048;8.396;2023-04-01T08:35:30;10.10;99.90
16271;DHT22;8243;49.048;8.396;2023-04-01T08:38:01;10.00;99.90
16271;DHT22;8243;49.048;8.396;2023-04-01T08:41:12;10.00;99.90
16271;DHT22;8243;49.048;8.396;2023-04-01T08:43:48;10.20;99.90
16271;DHT22;8243;49.048;8.396;2023-04-01T08:49:30;10.40;99.90
16271;DHT22;8243;49.048;8.396;2023-04-01T08:52:33;10.40;99.90
16271;DHT22;8243;49.048;8.396;2023-04-01T09:03:22;11.00;99.90
16271;DHT22;8243;49.048;8.396;2023-04-01T09:09:18;10.90;99.90
16271;DHT22;8243;49.048;8.396;2023-04-01T09:12:07;10.80;99.90
16271;DHT22;8243;49.048;8.396;2023-04-01T09:18:03;10.70;99.90
16271;DHT22;8243;49.048;8.396;2023-04-01T09:20:44;10.60;99.90
16271;DHT22;8243;49.048;8.396;2023-04-01T09:36:47;10.30;99.90
16271;DHT22;8243;49.048;8.396;2023-04-01T09:39:34;10.40;99.90
16271;DHT22;8243;49.048;8.396;2023-04-01T09:42:22;10.40;99.90
16271;DHT22;8243;49.048;8.396;2023-04-01T09:53:26;10.60;99.90
16271;DHT22;8243;49.048;8.396;2023-04-01T10:01:56;10.60;99.90
16271;DHT22;8243;49.048;8.396;2023-04-01T10:04:48;10.50;99.90
16271;DHT22;8243;49.048;8.396;2023-04-01T10:16:24;10.70;99.90
16271;DHT22;8243;49.048;8.396;2023-04-01T10:24:40;10.80;99.90
16271;DHT22;8243;49.048;8.396;2023-04-01T10:27:33;10.80;99.90
16271;DHT22;8243;49.048;8.396;2023-04-01T10:30:34;10.70;99.90
16271;DHT22;8243;49.048;8.396;2023-04-01T10:52:42;10.80;99.90
16271;DHT22;8243;49.048;8.396;2023-04-01T10:58:28;10.80;99.90
16271;DHT22;8243;49.048;8.396;2023-04-01T11:13:14;10.70;99.90
16271;DHT22;8243;49.048;8.396;2023-04-01T11:24:04;11.00;99.90
16271;DHT22;8243;49.048;8.396;2023-04-01T11:32:02;11.20;99.90
16271;DHT22;8243;49.048;8.396;2023-04-01T11:40:35;11.00;99.90
16271;DHT22;8243;49.048;8.396;2023-04-01T11:43:21;10.90;99.90
16271;DHT22;8243;49.048;8.396;2023-04-01T11:46:20;10.80;99.90
16271;DHT22;8243;49.048;8.396;2023-04-01T11:52:01;10.70;99.90
16271;DHT22;8243;49.048;8.396;2023-04-01T11:57:35;10.70;99.90
16271;DHT22;8243;49.048;8.396;2023-04-01T12:06:05;10.70;99.90
16271;DHT22;8243;49.048;8.396;2023-04-01T12:17:02;10.70;99.90
16271;DHT22;8243;49.048;8.396;2023-04-01T12:19:46;10.60;99.90
16271;DHT22;8243;49.048;8.396;2023-04-01T12:22:34;10.70;99.90
16271;DHT22;8243;49.048;8.396;2023-04-01T12:25:35;10.70;99.90
16271;DHT22;8243;49.048;8.396;2023-04-01T12:28:25;10.50;99.90
16271;DHT22;8243;49.048;8.396;2023-04-01T12:33:51;10.40;99.90
16271;DHT22;8243;49.048;8.396;2023-04-01T12:39:50;10.40;99.90
16271;DHT22;8243;49.048;8.396;2023-04-01T12:45:30;10.60;99.90
16271;DHT22;8243;49.048;8.396;2023-04-01T12:48:18;10.70;99.90
16271;DHT22;8243;49.048;8.396;2023-04-01T12:50:58;10.90;99.90
16271;DHT22;8243;49.048;8.396;2023-04-01T12:53:41;10.80;99.90
16271;DHT22;8243;49.048;8.396;2023-04-01T12:56:32;10.90;99.90
16271;DHT22;8243;49.048;8.396;2023-04-01T13:10:13;10.80;99.90
16271;DHT22;8243;49.048;8.396;2023-04-01T13:15:35;10.80;99.90
16271;DHT22;8243;49.048;8.396;2023-04-01T13:32:02;10.70;99.90
16271;DHT22;8243;49.048;8.396;2023-04-01T13:37:37;10.60;99.90
16271;DHT22;8243;49.048;8.396;2023-04-01T13:40:36;10.60;99.90
16271;DHT22;8243;49.048;8.396;2023-04-01T13:43:27;10.70;99.90
16271;DHT22;8243;49.048;8.396;2023-04-01T13:46:39;10.70;99.90
16271;DHT22;8243;49.048;8.396;2023-04-01T14:00:55;10.60;99.90
16271;DHT22;8243;49.048;8.396;2023-04-01T14:03:30;10.60;99.90
16271;DHT22;8243;49.048;8.396;2023-04-01T14:06:18;10.60;99.90
16271;DHT22;8243;49.048;8.396;2023-04-01T14:28:44;10.70;99.90
16271;DHT22;8243;49.048;8.396;2023-04-01T14:34:25;10.50;99.90
16271;DHT22;8243;49.048;8.396;2023-04-01T14:46:06;10.60;99.90
16271;DHT22;8243;49.048;8.396;2023-04-01T14:48:50;10.60;99.90
16271;DHT22;8243;49.048;8.396;2023-04-01T14:51:20;10.50;99.90
16271;DHT22;8243;49.048;8.396;2023-04-01T14:54:03;10.50;99.90
16271;DHT22;8243;49.048;8.396;2023-04-01T14:56:42;10.50;99.90
16271;DHT22;8243;49.048;8.396;2023-04-01T14:59:13;10.50;99.90
16271;DHT22;8243;49.048;8.396;2023-04-01T15:04:55;10.60;99.90
16271;DHT22;8243;49.048;8.396;2023-04-01T15:18:38;10.50;99.90
16271;DHT22;8243;49.048;8.396;2023-04-01T15:29:54;10.80;99.90
16271;DHT22;8243;49.048;8.396;2023-04-01T15:32:49;10.90;99.90
16271;DHT22;8243;49.048;8.396;2023-04-01T15:41:03;11.00;99.90
16271;DHT22;8243;49.048;8.396;2023-04-01T15:43:46;11.00;99.90
16271;DHT22;8243;49.048;8.396;2023-04-01T15:46:20;11.00;99.90
16271;DHT22;8243;49.048;8.396;2023-04-01T15:49:15;10.90;99.90
16271;DHT22;8243;49.048;8.396;2023-04-01T15:54:23;10.90;99.90
16271;DHT22;8243;49.048;8.396;2023-04-01T15:56:59;11.00;99.90
16271;DHT22;8243;49.048;8.396;2023-04-01T16:02:34;10.90;99.90
16271;DHT22;8243;49.048;8.396;2023-04-01T16:05:21;10.80;99.90
16271;DHT22;8243;49.048;8.396;2023-04-01T16:08:12;10.70;99.90
16271;DHT22;8243;49.048;8.396;2023-04-01T16:16:38;10.80;99.90
16271;DHT22;8243;49.048;8.396;2023-04-01T16:19:19;10.90;99.90
16271;DHT22;8243;49.048;8.396;2023-04-01T16:24:48;10.80;99.90
16271;DHT22;8243;49.048;8.396;2023-04-01T16:27:27;10.80;99.90
16271;DHT22;8243;49.048;8.396;2023-04-01T16:30:33;10.80;99.90
16271;DHT22;8243;49.048;8.396;2023-04-01T16:33:22;10.90;99.90
16271;DHT22;8243;49.048;8.396;2023-04-01T16:36:01;10.80;99.90
16271;DHT22;8243;49.048;8.396;2023-04-01T16:38:41;10.80;99.90
16271;DHT22;8243;49.048;8.396;2023-04-01T16:41:16;10.80;99.90
16271;DHT22;8243;49.048;8.396;2023-04-01T16:44:06;10.80;99.90
16271;DHT22;8243;49.048;8.396;2023-04-01T16:46:38;10.90;99.90
16271;DHT22;8243;49.048;8.396;2023-04-01T16:51:57;10.80;99.90
16271;DHT22;8243;49.048;8.396;2023-04-01T16:57:36;10.70;99.90
16271;DHT22;8243;49.048;8.396;2023-04-01T17:11:02;10.60;99.90
16271;DHT22;8243;49.048;8.396;2023-04-01T17:13:46;10.50;99.90
16271;DHT22;8243;49.048;8.396;2023-04-01T17:19:25;10.50;99.90
16271;DHT22;8243;49.048;8.396;2023-04-01T17:22:21;10.40;99.90
16271;DHT22;8243;49.048;8.396;2023-04-01T17:27:56;10.40;99.90
16271;DHT22;8243;49.048;8.396;2023-04-01T17:42:00;10.30;99.90
16271;DHT22;8243;49.048;8.396;2023-04-01T17:44:35;10.30;99.90
16271;DHT22;8243;49.048;8.396;2023-04-01T17:47:46;10.20;99.90
16271;DHT22;8243;49.048;8.396;2023-04-01T17:55:58;10.10;99.90
16271;DHT22;8243;49.048;8.396;2023-04-01T18:06:45;9.90;99.90
16271;DHT22;8243;49.048;8.396;2023-04-01T18:21:08;9.80;99.90
16271;DHT22;8243;49.048;8.396;2023-04-01T18:23:50;9.70;99.90
16271;DHT22;8243;49.048;8.396;2023-04-01T18:26:34;9.70;99.90
16271;DHT22;8243;49.048;8.396;2023-04-01T18:32:43;9.70;99.90
16271;DHT22;8243;49.048;8.396;2023-04-01T18:35:21;9.60;99.90
16271;DHT22;8243;49.048;8.396;2023-04-01T18:38:00;9.50;99.90
16271;DHT22;8243;49.048;8.396;2023-04-01T18:40:32;9.50;99.90
16271;DHT22;8243;49.048;8.396;2023-04-01T18:43:26;9.50;99.90
16271;DHT22;8243;49.048;8.396;2023-04-01T18:46:00;9.50;99.90
16271;DHT22;8243;49.048;8.396;2023-04-01T18:48:44;9.40;99.90
16271;DHT22;8243;49.048;8.396;2023-04-01T18:51:23;9.40;99.90
16271;DHT22;8243;49.048;8.396;2023-04-01T18:53:58;9.40;99.90
16271;DHT22;8243;49.048;8.396;2023-04-01T18:56:37;9.40;99.90
16271;DHT22;8243;49.048;8.396;2023-04-01T18:59:25;9.40;99.90
16271;DHT22;8243;49.048;8.396;2023-04-01T19:05:12;9.30;99.90
16271;DHT22;8243;49.048;8.396;2023-04-01T19:16:28;9.20;99.90
16271;DHT22;8243;49.048;8.396;2023-04-01T19:21:57;9.10;99.90
16271;DHT22;8243;49.048;8.396;2023-04-01T19:27:52;9.10;99.90
16271;DHT22;8243;49.048;8.396;2023-04-01T19:30:39;9.10;99.90
16271;DHT22;8243;49.048;8.396;2023-04-01T19:33:25;9.10;99.90
16271;DHT22;8243;49.048;8.396;2023-04-01T19:38:50;9.10;99.90
16271;DHT22;8243;49.048;8.396;2023-04-01T19:41:44;9.10;99.90
16271;DHT22;8243;49.048;8.396;2023-04-01T19:44:26;9.10;99.90
16271;DHT22;8243;49.048;8.396;2023-04-01T19:47:26;9.20;99.90
16271;DHT22;8243;49.048;8.396;2023-04-01T19:52:42;9.30;99.90
16271;DHT22;8243;49.048;8.396;2023-04-01T19:55:40;9.30;99.90
16271;DHT22;8243;49.048;8.396;2023-04-01T19:58:25;9.40;99.90
16271;DHT22;8243;49.048;8.396;2023-04-01T20:00:54;9.40;99.90
16271;DHT22;8243;49.048;8.396;2023-04-01T20:03:51;9.50;99.90
16271;DHT22;8243;49.048;8.396;2023-04-01T20:06:39;9.50;99.90
16271;DHT22;8243;49.048;8.396;2023-04-01T20:14:50;9.60;99.90
16271;DHT22;8243;49.048;8.396;2023-04-01T20:17:46;9.70;99.90
16271;DHT22;8243;49.048;8.396;2023-04-01T20:22:53;9.80;99.90
16271;DHT22;8243;49.048;8.396;2023-04-01T20:28:00;9.70;99.90
16271;DHT22;8243;49.048;8.396;2023-04-01T20:33:43;9.80;99.90
16271;DHT22;8243;49.048;8.396;2023-04-01T20:36:31;9.80;99.90
16271;DHT22;8243;49.048;8.396;2023-04-01T20:39:26;9.80;99.90
16271;DHT22;8243;49.048;8.396;2023-04-01T20:42:19;9.80;99.90
16271;DHT22;8243;49.048;8.396;2023-04-01T20:45:14;9.80;99.90
16271;DHT22;8243;49.048;8.396;2023-04-01T20:50:34;9.80;99.90
16271;DHT22;8243;49.048;8.396;2023-04-01T20:53:28;9.80;99.90
16271;DHT22;8243;49.048;8.396;2023-04-01T21:07:44;9.80;99.90
16271;DHT22;8243;49.048;8.396;2023-04-01T21:13:40;9.80;99.90
16271;DHT22;8243;49.048;8.396;2023-04-01T21:26:52;9.90;99.90
16271;DHT22;8243;49.048;8.396;2023-04-01T21:32:18;10.00;99.90
16271;DHT22;8243;49.048;8.396;2023-04-01T21:38:15;9.80;99.90
16271;DHT22;8243;49.048;8.396;2023-04-01T21:58:07;9.70;99.90
16271;DHT22;8243;49.048;8.396;2023-04-01T22:00:53;9.70;99.90
16271;DHT22;8243;49.048;8.396;2023-04-01T22:09:32;9.60;99.90
16271;DHT22;8243;49.048;8.396;2023-04-01T22:12:09;9.60;99.90
16271;DHT22;8243;49.048;8.396;2023-04-01T22:20:13;9.60;99.90
16271;DHT22;8243;49.048;8.396;2023-04-01T22:30:58;9.60;99.90
16271;DHT22;8243;49.048;8.396;2023-04-01T22:39:28;9.60;99.90
16271;DHT22;8243;49.048;8.396;2023-04-01T22:50:19;9.50;99.90
16271;DHT22;8243;49.048;8.396;2023-04-01T22:52:49;9.50;99.90
16271;DHT22;8243;49.048;8.396;2023-04-01T22:55:27;9.50;99.90
16271;DHT22;8243;49.048;8.396;2023-04-01T22:57:58;9.50;99.90
16271;DHT22;8243;49.048;8.396;2023-04-01T23:00:39;9.50;99.90
16271;DHT22;8243;49.048;8.396;2023-04-01T23:03:28;9.50;99.90
16271;DHT22;8243;49.048;8.396;2023-04-01T23:05:57;9.50;99.90
16271;DHT22;8243;49.048;8.396;2023-04-01T23:11:18;9.50;99.90
16271;DHT22;8243;49.048;8.396;2023-04-01T23:13:48;9.50;99.90
16271;DHT22;8243;49.048;8.396;2023-04-01T23:16:25;9.40;99.90
16271;DHT22;8243;49.048;8.396;2023-04-01T23:21:45;9.40;99.90
16271;DHT22;8243;49.048;8.396;2023-04-01T23:24:36;9.50;99.90
16271;DHT22;8243;49.048;8.396;2023-04-01T23:27:12;9.40;99.90
16271;DHT22;8243;49.048;8.396;2023-04-01T23:29:42;9.50;99.90
16271;DHT22;8243;49.048;8.396;2023-04-01T23:32:17;9.50;99.90
16271;DHT22;8243;49.048;8.396;2023-04-01T23:34:47;9.50;99.90
16271;DHT22;8243;49.048;8.396;2023-04-01T23:37:14;9.50;99.90
16271;DHT22;8243;49.048;8.396;2023-04-01T23:42:32;9.50;99.90
16271;DHT22;8243;49.048;8.396;2023-04-01T23:45:05;9.50;99.90
16271;DHT22;8243;49.048;8.396;2023-04-01T23:47:39;9.50;99.90
16271;DHT22;8243;49.048;8.396;2023-04-01T23:50:14;9.50;99.90
16271;DHT22;8243;49.048;8.396;2023-04-01T23:52:46;9.40;99.90
16271;DHT22;8243;49.048;8.396;2023-04-01T23:55:47;9.40;99.90
16271;DHT22;8243;49.048;8.396;2023-04-01T23:58:26;9.40;99.90
